sensor_id;sensor_type;location;lat;lon;timestamp;P1;durP1;ratioP1;P2;durP2;ratioP2
47289;SDS011;33197;52.524;13.444;2022-10-16T00:01:19;3.72;;;2.22;;
47289;SDS011;33197;52.524;13.444;2022-10-16T00:03:48;6.43;;;2.30;;
47289;SDS011;33197;52.524;13.444;2022-10-16T00:06:17;4.22;;;2.53;;
47289;SDS011;33197;52.524;13.444;2022-10-16T00:08:46;4.60;;;2.72;;
47289;SDS011;33197;52.524;13.444;2022-10-16T00:11:33;4.63;;;2.72;;
47289;SDS011;33197;52.524;13.444;2022-10-16T00:14:05;4.30;;;2.50;;
47289;SDS011;33197;52.524;13.444;2022-10-16T00:16:35;4.80;;;3.10;;
47289;SDS011;33197;52.524;13.444;2022-10-16T00:19:02;6.72;;;3.53;;
47289;SDS011;33197;52.524;13.444;2022-10-16T00:21:30;5.97;;;2.95;;
47289;SDS011;33197;52.524;13.444;2022-10-16T00:24:00;7.50;;;3.10;;
47289;SDS011;33197;52.524;13.444;2022-10-16T00:26:32;4.65;;;3.20;;
47289;SDS011;33197;52.524;13.444;2022-10-16T00:29:00;5.97;;;3.95;;
47289;SDS011;33197;52.524;13.444;2022-10-16T00:31:29;4.68;;;3.03;;
47289;SDS011;33197;52.524;13.444;2022-10-16T00:33:57;4.00;;;2.60;;
47289;SDS011;33197;52.524;13.444;2022-10-16T00:36:25;4.32;;;3.05;;
47289;SDS011;33197;52.524;13.444;2022-10-16T00:38:54;3.63;;;2.58;;
47289;SDS011;33197;52.524;13.444;2022-10-16T00:41:24;4.13;;;2.95;;
47289;SDS011;33197;52.524;13.444;2022-10-16T00:43:56;4.80;;;2.45;;
47289;SDS011;33197;52.524;13.444;2022-10-16T00:49:12;5.57;;;2.38;;
47289;SDS011;33197;52.524;13.444;2022-10-16T00:51:42;2.85;;;2.30;;
47289;SDS011;33197;52.524;13.444;2022-10-16T00:54:12;5.25;;;2.40;;
47289;SDS011;33197;52.524;13.444;2022-10-16T00:56:42;3.10;;;1.98;;
47289;SDS011;33197;52.524;13.444;2022-10-16T00:59:16;3.70;;;2.65;;
47289;SDS011;33197;52.524;13.444;2022-10-16T01:01:46;3.30;;;2.28;;
47289;SDS011;33197;52.524;13.444;2022-10-16T01:04:13;3.70;;;2.88;;
47289;SDS011;33197;52.524;13.444;2022-10-16T01:06:43;4.93;;;2.22;;
47289;SDS011;33197;52.524;13.444;2022-10-16T01:09:23;5.25;;;2.30;;
47289;SDS011;33197;52.524;13.444;2022-10-16T01:12:17;3.80;;;2.35;;
47289;SDS011;33197;52.524;13.444;2022-10-16T01:25:36;4.95;;;2.13;;
47289;SDS011;33197;52.524;13.444;2022-10-16T01:28:14;3.17;;;1.90;;
47289;SDS011;33197;52.524;13.444;2022-10-16T01:30:42;2.83;;;2.00;;
47289;SDS011;33197;52.524;13.444;2022-10-16T01:33:19;2.47;;;1.90;;
47289;SDS011;33197;52.524;13.444;2022-10-16T01:35:51;2.55;;;1.50;;
47289;SDS011;33197;52.524;13.444;2022-10-16T01:38:21;2.97;;;2.03;;
47289;SDS011;33197;52.524;13.444;2022-10-16T01:43:31;2.42;;;1.50;;
47289;SDS011;33197;52.524;13.444;2022-10-16T01:46:01;1.60;;;1.30;;
47289;SDS011;33197;52.524;13.444;2022-10-16T01:48:29;2.17;;;1.30;;
47289;SDS011;33197;52.524;13.444;2022-10-16T01:51:04;3.40;;;1.40;;
47289;SDS011;33197;52.524;13.444;2022-10-16T01:53:33;4.45;;;1.40;;
47289;SDS011;33197;52.524;13.444;2022-10-16T01:56:02;1.52;;;1.17;;
47289;SDS011;33197;52.524;13.444;2022-10-16T01:58:33;1.77;;;1.38;;
47289;SDS011;33197;52.524;13.444;2022-10-16T02:01:03;3.40;;;1.50;;
47289;SDS011;33197;52.524;13.444;2022-10-16T02:03:31;2.65;;;1.50;;
47289;SDS011;33197;52.524;13.444;2022-10-16T02:06:00;1.90;;;1.35;;
47289;SDS011;33197;52.524;13.444;2022-10-16T02:08:28;2.90;;;1.33;;
47289;SDS011;33197;52.524;13.444;2022-10-16T02:10:56;2.42;;;1.10;;
47289;SDS011;33197;52.524;13.444;2022-10-16T02:16:00;6.20;;;1.73;;
47289;SDS011;33197;52.524;13.444;2022-10-16T02:18:27;2.40;;;1.42;;
47289;SDS011;33197;52.524;13.444;2022-10-16T02:23:33;3.67;;;1.30;;
47289;SDS011;33197;52.524;13.444;2022-10-16T02:26:05;2.88;;;1.10;;
47289;SDS011;33197;52.524;13.444;2022-10-16T02:28:38;2.72;;;1.40;;
47289;SDS011;33197;52.524;13.444;2022-10-16T02:31:10;4.55;;;1.30;;
47289;SDS011;33197;52.524;13.444;2022-10-16T02:33:40;1.55;;;1.27;;
47289;SDS011;33197;52.524;13.444;2022-10-16T02:36:09;1.77;;;1.20;;
47289;SDS011;33197;52.524;13.444;2022-10-16T02:38:37;1.92;;;1.42;;
47289;SDS011;33197;52.524;13.444;2022-10-16T02:41:05;1.85;;;1.10;;
47289;SDS011;33197;52.524;13.444;2022-10-16T02:43:32;2.95;;;1.35;;
47289;SDS011;33197;52.524;13.444;2022-10-16T02:46:00;2.28;;;1.42;;
47289;SDS011;33197;52.524;13.444;2022-10-16T02:48:28;4.30;;;1.00;;
47289;SDS011;33197;52.524;13.444;2022-10-16T02:50:58;2.80;;;1.30;;
47289;SDS011;33197;52.524;13.444;2022-10-16T02:53:26;1.33;;;1.10;;
47289;SDS011;33197;52.524;13.444;2022-10-16T02:55:54;2.28;;;1.20;;
47289;SDS011;33197;52.524;13.444;2022-10-16T02:58:21;4.53;;;1.42;;
47289;SDS011;33197;52.524;13.444;2022-10-16T03:00:49;1.67;;;1.30;;
47289;SDS011;33197;52.524;13.444;2022-10-16T03:03:16;1.75;;;1.35;;
47289;SDS011;33197;52.524;13.444;2022-10-16T03:05:44;1.55;;;1.20;;
47289;SDS011;33197;52.524;13.444;2022-10-16T03:08:13;3.13;;;1.60;;
47289;SDS011;33197;52.524;13.444;2022-10-16T03:10:47;1.83;;;1.25;;
47289;SDS011;33197;52.524;13.444;2022-10-16T03:13:15;2.92;;;1.25;;
47289;SDS011;33197;52.524;13.444;2022-10-16T03:15:43;3.78;;;1.27;;
47289;SDS011;33197;52.524;13.444;2022-10-16T03:18:10;1.98;;;1.20;;
47289;SDS011;33197;52.524;13.444;2022-10-16T03:20:38;2.90;;;1.02;;
47289;SDS011;33197;52.524;13.444;2022-10-16T03:23:05;1.60;;;1.20;;
47289;SDS011;33197;52.524;13.444;2022-10-16T03:25:35;1.80;;;1.30;;
47289;SDS011;33197;52.524;13.444;2022-10-16T03:28:02;1.67;;;1.10;;
47289;SDS011;33197;52.524;13.444;2022-10-16T03:30:30;4.22;;;1.20;;
47289;SDS011;33197;52.524;13.444;2022-10-16T03:32:57;3.17;;;1.35;;
47289;SDS011;33197;52.524;13.444;2022-10-16T03:35:25;2.65;;;1.10;;
47289;SDS011;33197;52.524;13.444;2022-10-16T03:37:52;2.22;;;1.30;;
47289;SDS011;33197;52.524;13.444;2022-10-16T03:40:20;2.17;;;1.10;;
47289;SDS011;33197;52.524;13.444;2022-10-16T03:42:47;2.00;;;1.20;;
47289;SDS011;33197;52.524;13.444;2022-10-16T03:45:15;2.75;;;1.67;;
47289;SDS011;33197;52.524;13.444;2022-10-16T03:47:42;1.63;;;1.20;;
47289;SDS011;33197;52.524;13.444;2022-10-16T03:50:10;1.88;;;1.40;;
47289;SDS011;33197;52.524;13.444;2022-10-16T03:52:37;3.10;;;1.75;;
47289;SDS011;33197;52.524;13.444;2022-10-16T03:55:05;2.00;;;1.45;;
47289;SDS011;33197;52.524;13.444;2022-10-16T03:57:33;2.42;;;1.33;;
47289;SDS011;33197;52.524;13.444;2022-10-16T04:00:00;4.70;;;1.38;;
47289;SDS011;33197;52.524;13.444;2022-10-16T04:02:28;2.47;;;1.40;;
47289;SDS011;33197;52.524;13.444;2022-10-16T04:04:55;3.08;;;1.48;;
47289;SDS011;33197;52.524;13.444;2022-10-16T04:07:23;2.47;;;1.20;;
47289;SDS011;33197;52.524;13.444;2022-10-16T04:09:53;2.35;;;1.40;;
47289;SDS011;33197;52.524;13.444;2022-10-16T04:12:24;2.35;;;1.65;;
47289;SDS011;33197;52.524;13.444;2022-10-16T04:14:52;3.13;;;1.73;;
47289;SDS011;33197;52.524;13.444;2022-10-16T04:17:20;2.05;;;1.42;;
47289;SDS011;33197;52.524;13.444;2022-10-16T04:19:47;3.05;;;1.30;;
47289;SDS011;33197;52.524;13.444;2022-10-16T04:22:15;2.25;;;1.42;;
47289;SDS011;33197;52.524;13.444;2022-10-16T04:24:42;1.85;;;1.33;;
47289;SDS011;33197;52.524;13.444;2022-10-16T04:27:10;2.13;;;1.30;;
47289;SDS011;33197;52.524;13.444;2022-10-16T04:29:37;3.22;;;1.23;;
47289;SDS011;33197;52.524;13.444;2022-10-16T04:32:05;1.50;;;1.10;;
47289;SDS011;33197;52.524;13.444;2022-10-16T04:34:32;1.88;;;1.52;;
47289;SDS011;33197;52.524;13.444;2022-10-16T04:37:02;1.92;;;1.20;;
47289;SDS011;33197;52.524;13.444;2022-10-16T04:39:29;2.22;;;1.60;;
47289;SDS011;33197;52.524;13.444;2022-10-16T04:41:57;1.58;;;0.95;;
47289;SDS011;33197;52.524;13.444;2022-10-16T04:44:25;3.65;;;1.73;;
47289;SDS011;33197;52.524;13.444;2022-10-16T04:46:52;2.30;;;1.65;;
47289;SDS011;33197;52.524;13.444;2022-10-16T04:49:20;1.92;;;1.48;;
47289;SDS011;33197;52.524;13.444;2022-10-16T04:51:47;2.60;;;1.73;;
47289;SDS011;33197;52.524;13.444;2022-10-16T04:54:15;1.50;;;1.25;;
47289;SDS011;33197;52.524;13.444;2022-10-16T04:56:42;2.47;;;1.30;;
47289;SDS011;33197;52.524;13.444;2022-10-16T04:59:14;2.10;;;1.25;;
47289;SDS011;33197;52.524;13.444;2022-10-16T05:01:42;2.60;;;1.45;;
47289;SDS011;33197;52.524;13.444;2022-10-16T05:04:10;3.20;;;1.30;;
47289;SDS011;33197;52.524;13.444;2022-10-16T05:06:38;4.18;;;1.52;;
47289;SDS011;33197;52.524;13.444;2022-10-16T05:09:05;3.13;;;1.42;;
47289;SDS011;33197;52.524;13.444;2022-10-16T05:11:33;1.88;;;1.30;;
47289;SDS011;33197;52.524;13.444;2022-10-16T05:14:01;1.90;;;1.38;;
47289;SDS011;33197;52.524;13.444;2022-10-16T05:16:29;2.92;;;1.40;;
47289;SDS011;33197;52.524;13.444;2022-10-16T05:18:57;2.72;;;1.50;;
47289;SDS011;33197;52.524;13.444;2022-10-16T05:21:45;2.70;;;1.63;;
47289;SDS011;33197;52.524;13.444;2022-10-16T05:24:12;3.08;;;1.70;;
47289;SDS011;33197;52.524;13.444;2022-10-16T05:26:41;4.50;;;1.65;;
47289;SDS011;33197;52.524;13.444;2022-10-16T05:29:08;4.40;;;1.50;;
47289;SDS011;33197;52.524;13.444;2022-10-16T05:31:36;1.75;;;1.42;;
47289;SDS011;33197;52.524;13.444;2022-10-16T05:34:04;2.90;;;1.58;;
47289;SDS011;33197;52.524;13.444;2022-10-16T05:36:31;3.15;;;1.95;;
47289;SDS011;33197;52.524;13.444;2022-10-16T05:38:58;4.40;;;1.63;;
47289;SDS011;33197;52.524;13.444;2022-10-16T05:41:26;2.92;;;1.90;;
47289;SDS011;33197;52.524;13.444;2022-10-16T05:43:54;5.57;;;1.80;;
47289;SDS011;33197;52.524;13.444;2022-10-16T05:46:21;2.63;;;1.83;;
47289;SDS011;33197;52.524;13.444;2022-10-16T05:48:51;4.57;;;1.73;;
47289;SDS011;33197;52.524;13.444;2022-10-16T05:51:20;3.22;;;1.67;;
47289;SDS011;33197;52.524;13.444;2022-10-16T05:53:48;4.10;;;1.77;;
47289;SDS011;33197;52.524;13.444;2022-10-16T05:56:15;4.97;;;1.67;;
47289;SDS011;33197;52.524;13.444;2022-10-16T05:58:43;4.32;;;1.77;;
47289;SDS011;33197;52.524;13.444;2022-10-16T06:01:14;3.13;;;1.90;;
47289;SDS011;33197;52.524;13.444;2022-10-16T06:03:44;2.53;;;1.83;;
47289;SDS011;33197;52.524;13.444;2022-10-16T06:06:13;5.78;;;2.10;;
47289;SDS011;33197;52.524;13.444;2022-10-16T06:08:42;3.40;;;1.92;;
47289;SDS011;33197;52.524;13.444;2022-10-16T06:11:13;5.00;;;2.03;;
47289;SDS011;33197;52.524;13.444;2022-10-16T06:13:42;3.08;;;1.65;;
47289;SDS011;33197;52.524;13.444;2022-10-16T06:16:13;3.83;;;2.00;;
47289;SDS011;33197;52.524;13.444;2022-10-16T06:18:40;2.20;;;2.00;;
47289;SDS011;33197;52.524;13.444;2022-10-16T06:21:09;3.80;;;1.63;;
47289;SDS011;33197;52.524;13.444;2022-10-16T06:23:41;4.45;;;1.55;;
47289;SDS011;33197;52.524;13.444;2022-10-16T06:26:10;4.18;;;1.60;;
47289;SDS011;33197;52.524;13.444;2022-10-16T06:28:40;3.42;;;1.55;;
47289;SDS011;33197;52.524;13.444;2022-10-16T06:31:09;2.60;;;2.05;;
47289;SDS011;33197;52.524;13.444;2022-10-16T06:33:37;2.72;;;1.88;;
47289;SDS011;33197;52.524;13.444;2022-10-16T06:36:06;4.07;;;1.73;;
47289;SDS011;33197;52.524;13.444;2022-10-16T06:38:37;4.10;;;1.85;;
47289;SDS011;33197;52.524;13.444;2022-10-16T06:41:06;2.05;;;1.40;;
47289;SDS011;33197;52.524;13.444;2022-10-16T06:43:34;2.40;;;1.60;;
47289;SDS011;33197;52.524;13.444;2022-10-16T06:46:05;3.28;;;2.03;;
47289;SDS011;33197;52.524;13.444;2022-10-16T06:48:34;3.22;;;2.47;;
47289;SDS011;33197;52.524;13.444;2022-10-16T06:51:03;4.03;;;1.65;;
47289;SDS011;33197;52.524;13.444;2022-10-16T06:53:36;3.13;;;1.92;;
47289;SDS011;33197;52.524;13.444;2022-10-16T06:56:25;4.30;;;1.52;;
47289;SDS011;33197;52.524;13.444;2022-10-16T06:58:55;3.53;;;1.80;;
47289;SDS011;33197;52.524;13.444;2022-10-16T07:01:22;3.63;;;1.67;;
47289;SDS011;33197;52.524;13.444;2022-10-16T07:03:51;1.42;;;1.33;;
47289;SDS011;33197;52.524;13.444;2022-10-16T07:06:19;4.20;;;1.70;;
47289;SDS011;33197;52.524;13.444;2022-10-16T07:08:48;2.63;;;1.80;;
47289;SDS011;33197;52.524;13.444;2022-10-16T07:11:18;3.88;;;1.77;;
47289;SDS011;33197;52.524;13.444;2022-10-16T07:13:50;2.40;;;1.67;;
47289;SDS011;33197;52.524;13.444;2022-10-16T07:16:22;2.00;;;1.58;;
47289;SDS011;33197;52.524;13.444;2022-10-16T07:18:51;2.60;;;1.80;;
47289;SDS011;33197;52.524;13.444;2022-10-16T07:21:25;3.50;;;2.10;;
47289;SDS011;33197;52.524;13.444;2022-10-16T07:23:57;6.82;;;1.98;;
47289;SDS011;33197;52.524;13.444;2022-10-16T07:26:26;2.45;;;1.80;;
47289;SDS011;33197;52.524;13.444;2022-10-16T07:28:54;4.80;;;2.05;;
47289;SDS011;33197;52.524;13.444;2022-10-16T07:31:22;4.50;;;1.90;;
47289;SDS011;33197;52.524;13.444;2022-10-16T07:33:50;3.58;;;1.92;;
47289;SDS011;33197;52.524;13.444;2022-10-16T07:36:19;4.15;;;1.70;;
47289;SDS011;33197;52.524;13.444;2022-10-16T07:38:47;2.80;;;1.60;;
47289;SDS011;33197;52.524;13.444;2022-10-16T07:41:19;2.53;;;1.70;;
47289;SDS011;33197;52.524;13.444;2022-10-16T07:43:51;4.20;;;1.70;;
47289;SDS011;33197;52.524;13.444;2022-10-16T07:46:19;4.25;;;1.65;;
47289;SDS011;33197;52.524;13.444;2022-10-16T07:48:47;4.13;;;1.80;;
47289;SDS011;33197;52.524;13.444;2022-10-16T07:51:17;2.38;;;1.40;;
47289;SDS011;33197;52.524;13.444;2022-10-16T07:53:46;2.70;;;1.80;;
47289;SDS011;33197;52.524;13.444;2022-10-16T07:56:16;3.88;;;1.30;;
47289;SDS011;33197;52.524;13.444;2022-10-16T07:58:45;2.45;;;1.40;;
47289;SDS011;33197;52.524;13.444;2022-10-16T08:01:13;1.95;;;1.65;;
47289;SDS011;33197;52.524;13.444;2022-10-16T08:03:42;2.63;;;1.35;;
47289;SDS011;33197;52.524;13.444;2022-10-16T08:06:14;2.13;;;1.33;;
47289;SDS011;33197;52.524;13.444;2022-10-16T08:08:42;2.33;;;1.67;;
47289;SDS011;33197;52.524;13.444;2022-10-16T08:11:10;3.13;;;2.03;;
47289;SDS011;33197;52.524;13.444;2022-10-16T08:13:37;4.72;;;1.60;;
47289;SDS011;33197;52.524;13.444;2022-10-16T08:16:05;1.73;;;1.23;;
47289;SDS011;33197;52.524;13.444;2022-10-16T08:18:38;3.00;;;1.40;;
47289;SDS011;33197;52.524;13.444;2022-10-16T08:21:07;2.35;;;1.30;;
47289;SDS011;33197;52.524;13.444;2022-10-16T08:23:47;1.55;;;1.08;;
47289;SDS011;33197;52.524;13.444;2022-10-16T08:26:23;1.35;;;0.85;;
47289;SDS011;33197;52.524;13.444;2022-10-16T08:28:50;5.25;;;1.30;;
47289;SDS011;33197;52.524;13.444;2022-10-16T08:31:19;2.88;;;1.00;;
47289;SDS011;33197;52.524;13.444;2022-10-16T08:33:47;3.45;;;1.10;;
47289;SDS011;33197;52.524;13.444;2022-10-16T08:36:15;2.33;;;1.20;;
47289;SDS011;33197;52.524;13.444;2022-10-16T08:38:43;1.38;;;1.20;;
47289;SDS011;33197;52.524;13.444;2022-10-16T08:41:21;1.75;;;1.25;;
47289;SDS011;33197;52.524;13.444;2022-10-16T08:44:07;1.50;;;1.10;;
47289;SDS011;33197;52.524;13.444;2022-10-16T08:49:16;1.20;;;0.90;;
47289;SDS011;33197;52.524;13.444;2022-10-16T08:51:45;2.80;;;1.20;;
47289;SDS011;33197;52.524;13.444;2022-10-16T08:56:54;1.92;;;1.15;;
47289;SDS011;33197;52.524;13.444;2022-10-16T08:59:23;3.97;;;1.02;;
47289;SDS011;33197;52.524;13.444;2022-10-16T09:01:50;1.80;;;0.95;;
47289;SDS011;33197;52.524;13.444;2022-10-16T09:04:35;2.55;;;0.98;;
47289;SDS011;33197;52.524;13.444;2022-10-16T09:07:32;3.20;;;1.42;;
47289;SDS011;33197;52.524;13.444;2022-10-16T09:15:29;1.55;;;1.02;;
47289;SDS011;33197;52.524;13.444;2022-10-16T09:23:15;2.05;;;1.20;;
47289;SDS011;33197;52.524;13.444;2022-10-16T09:26:01;2.67;;;1.73;;
47289;SDS011;33197;52.524;13.444;2022-10-16T09:28:30;1.63;;;1.02;;
47289;SDS011;33197;52.524;13.444;2022-10-16T09:30:57;1.27;;;0.95;;
47289;SDS011;33197;52.524;13.444;2022-10-16T09:33:27;1.35;;;0.80;;
47289;SDS011;33197;52.524;13.444;2022-10-16T09:35:57;2.65;;;0.95;;
47289;SDS011;33197;52.524;13.444;2022-10-16T09:38:31;2.13;;;1.10;;
47289;SDS011;33197;52.524;13.444;2022-10-16T09:41:01;2.28;;;0.95;;
47289;SDS011;33197;52.524;13.444;2022-10-16T09:48:58;5.43;;;1.33;;
47289;SDS011;33197;52.524;13.444;2022-10-16T09:54:11;3.00;;;1.08;;
47289;SDS011;33197;52.524;13.444;2022-10-16T09:56:39;3.53;;;1.13;;
47289;SDS011;33197;52.524;13.444;2022-10-16T09:59:20;2.03;;;1.08;;
47289;SDS011;33197;52.524;13.444;2022-10-16T10:01:51;4.55;;;1.30;;
47289;SDS011;33197;52.524;13.444;2022-10-16T10:04:21;5.00;;;1.10;;
47289;SDS011;33197;52.524;13.444;2022-10-16T10:06:56;4.95;;;1.48;;
47289;SDS011;33197;52.524;13.444;2022-10-16T10:09:25;2.40;;;1.10;;
47289;SDS011;33197;52.524;13.444;2022-10-16T10:11:58;1.88;;;0.90;;
47289;SDS011;33197;52.524;13.444;2022-10-16T10:14:27;1.95;;;0.95;;
47289;SDS011;33197;52.524;13.444;2022-10-16T10:19:40;1.92;;;1.00;;
47289;SDS011;33197;52.524;13.444;2022-10-16T10:22:26;1.80;;;0.82;;
47289;SDS011;33197;52.524;13.444;2022-10-16T10:36:34;5.63;;;1.08;;
47289;SDS011;33197;52.524;13.444;2022-10-16T10:39:15;2.00;;;0.80;;
47289;SDS011;33197;52.524;13.444;2022-10-16T10:42:09;5.00;;;0.85;;
47289;SDS011;33197;52.524;13.444;2022-10-16T10:50:43;2.95;;;1.10;;
47289;SDS011;33197;52.524;13.444;2022-10-16T11:01:09;2.03;;;0.85;;
47289;SDS011;33197;52.524;13.444;2022-10-16T11:06:42;1.55;;;0.68;;
47289;SDS011;33197;52.524;13.444;2022-10-16T11:11:44;2.03;;;0.90;;
47289;SDS011;33197;52.524;13.444;2022-10-16T11:14:18;4.80;;;1.15;;
47289;SDS011;33197;52.524;13.444;2022-10-16T11:16:52;2.85;;;0.60;;
47289;SDS011;33197;52.524;13.444;2022-10-16T11:22:03;2.97;;;0.80;;
47289;SDS011;33197;52.524;13.444;2022-10-16T11:30:40;7.93;;;0.70;;
47289;SDS011;33197;52.524;13.444;2022-10-16T11:36:03;2.10;;;0.63;;
47289;SDS011;33197;52.524;13.444;2022-10-16T11:41:24;4.22;;;1.17;;
47289;SDS011;33197;52.524;13.444;2022-10-16T11:46:52;3.50;;;0.80;;
47289;SDS011;33197;52.524;13.444;2022-10-16T11:49:44;1.50;;;0.73;;
47289;SDS011;33197;52.524;13.444;2022-10-16T11:52:20;3.03;;;0.95;;
47289;SDS011;33197;52.524;13.444;2022-10-16T11:54:54;2.50;;;0.55;;
47289;SDS011;33197;52.524;13.444;2022-10-16T11:57:29;1.55;;;0.93;;
47289;SDS011;33197;52.524;13.444;2022-10-16T12:00:30;0.98;;;0.60;;
47289;SDS011;33197;52.524;13.444;2022-10-16T12:08:53;1.60;;;0.80;;
47289;SDS011;33197;52.524;13.444;2022-10-16T12:11:32;1.80;;;0.88;;
47289;SDS011;33197;52.524;13.444;2022-10-16T12:14:06;1.20;;;0.80;;
47289;SDS011;33197;52.524;13.444;2022-10-16T12:16:55;2.17;;;0.80;;
47289;SDS011;33197;52.524;13.444;2022-10-16T12:19:32;4.28;;;0.70;;
47289;SDS011;33197;52.524;13.444;2022-10-16T12:22:01;1.73;;;0.70;;
47289;SDS011;33197;52.524;13.444;2022-10-16T12:24:41;1.83;;;0.50;;
47289;SDS011;33197;52.524;13.444;2022-10-16T12:27:53;1.75;;;0.70;;
47289;SDS011;33197;52.524;13.444;2022-10-16T12:30:01;2.92;;;0.50;;
47289;SDS011;33197;52.524;13.444;2022-10-16T12:35:20;0.68;;;0.40;;
47289;SDS011;33197;52.524;13.444;2022-10-16T12:37:48;3.08;;;0.50;;
47289;SDS011;33197;52.524;13.444;2022-10-16T12:40:23;1.92;;;0.57;;
47289;SDS011;33197;52.524;13.444;2022-10-16T12:43:11;0.55;;;0.35;;
47289;SDS011;33197;52.524;13.444;2022-10-16T12:45:59;2.35;;;0.50;;
47289;SDS011;33197;52.524;13.444;2022-10-16T12:48:31;0.47;;;0.47;;
47289;SDS011;33197;52.524;13.444;2022-10-16T12:51:53;2.55;;;0.55;;
47289;SDS011;33197;52.524;13.444;2022-10-16T13:00:04;1.75;;;0.50;;
47289;SDS011;33197;52.524;13.444;2022-10-16T13:05:44;2.22;;;0.68;;
47289;SDS011;33197;52.524;13.444;2022-10-16T13:19:37;3.70;;;0.55;;
47289;SDS011;33197;52.524;13.444;2022-10-16T13:27:38;2.33;;;0.57;;
47289;SDS011;33197;52.524;13.444;2022-10-16T13:32:44;0.50;;;0.38;;
47289;SDS011;33197;52.524;13.444;2022-10-16T13:38:18;0.73;;;0.50;;
47289;SDS011;33197;52.524;13.444;2022-10-16T13:40:53;0.50;;;0.40;;
47289;SDS011;33197;52.524;13.444;2022-10-16T13:45:59;0.55;;;0.45;;
47289;SDS011;33197;52.524;13.444;2022-10-16T13:48:29;0.77;;;0.43;;
47289;SDS011;33197;52.524;13.444;2022-10-16T13:50:58;2.50;;;0.70;;
47289;SDS011;33197;52.524;13.444;2022-10-16T13:53:27;0.98;;;0.50;;
47289;SDS011;33197;52.524;13.444;2022-10-16T13:55:57;1.40;;;0.43;;
47289;SDS011;33197;52.524;13.444;2022-10-16T13:58:27;1.40;;;0.60;;
47289;SDS011;33197;52.524;13.444;2022-10-16T14:00:55;0.60;;;0.40;;
47289;SDS011;33197;52.524;13.444;2022-10-16T14:03:24;4.13;;;0.60;;
47289;SDS011;33197;52.524;13.444;2022-10-16T14:05:56;2.92;;;0.77;;
47289;SDS011;33197;52.524;13.444;2022-10-16T14:08:26;0.85;;;0.55;;
47289;SDS011;33197;52.524;13.444;2022-10-16T14:10:59;8.32;;;0.77;;
47289;SDS011;33197;52.524;13.444;2022-10-16T14:13:31;1.13;;;0.52;;
47289;SDS011;33197;52.524;13.444;2022-10-16T14:16:02;2.33;;;0.50;;
47289;SDS011;33197;52.524;13.444;2022-10-16T14:18:34;1.25;;;0.60;;
47289;SDS011;33197;52.524;13.444;2022-10-16T14:21:02;0.70;;;0.50;;
47289;SDS011;33197;52.524;13.444;2022-10-16T14:23:35;3.30;;;0.45;;
47289;SDS011;33197;52.524;13.444;2022-10-16T14:28:38;0.50;;;0.45;;
47289;SDS011;33197;52.524;13.444;2022-10-16T14:34:23;0.55;;;0.50;;
47289;SDS011;33197;52.524;13.444;2022-10-16T14:36:58;1.65;;;0.40;;
47289;SDS011;33197;52.524;13.444;2022-10-16T14:39:36;2.90;;;0.63;;
47289;SDS011;33197;52.524;13.444;2022-10-16T14:42:13;1.13;;;0.40;;
47289;SDS011;33197;52.524;13.444;2022-10-16T14:44:43;1.30;;;0.70;;
47289;SDS011;33197;52.524;13.444;2022-10-16T14:47:15;2.75;;;0.60;;
47289;SDS011;33197;52.524;13.444;2022-10-16T14:49:49;0.98;;;0.68;;
47289;SDS011;33197;52.524;13.444;2022-10-16T14:52:17;1.30;;;0.70;;
47289;SDS011;33197;52.524;13.444;2022-10-16T14:54:47;3.67;;;0.60;;
47289;SDS011;33197;52.524;13.444;2022-10-16T14:57:16;1.25;;;0.55;;
47289;SDS011;33197;52.524;13.444;2022-10-16T14:59:51;1.60;;;0.55;;
47289;SDS011;33197;52.524;13.444;2022-10-16T15:02:23;1.92;;;0.50;;
47289;SDS011;33197;52.524;13.444;2022-10-16T15:04:54;2.58;;;0.80;;
47289;SDS011;33197;52.524;13.444;2022-10-16T15:07:22;2.28;;;0.65;;
47289;SDS011;33197;52.524;13.444;2022-10-16T15:09:50;0.63;;;0.50;;
47289;SDS011;33197;52.524;13.444;2022-10-16T15:12:18;0.98;;;0.63;;
47289;SDS011;33197;52.524;13.444;2022-10-16T15:14:45;3.13;;;0.60;;
47289;SDS011;33197;52.524;13.444;2022-10-16T15:17:13;1.83;;;0.60;;
47289;SDS011;33197;52.524;13.444;2022-10-16T15:19:45;0.77;;;0.50;;
47289;SDS011;33197;52.524;13.444;2022-10-16T15:22:13;0.68;;;0.50;;
47289;SDS011;33197;52.524;13.444;2022-10-16T15:24:41;1.67;;;1.08;;
47289;SDS011;33197;52.524;13.444;2022-10-16T15:27:09;5.32;;;0.70;;
47289;SDS011;33197;52.524;13.444;2022-10-16T15:29:36;0.77;;;0.60;;
47289;SDS011;33197;52.524;13.444;2022-10-16T15:32:14;3.30;;;0.70;;
47289;SDS011;33197;52.524;13.444;2022-10-16T15:34:42;1.77;;;0.63;;
47289;SDS011;33197;52.524;13.444;2022-10-16T15:37:10;0.88;;;0.60;;
47289;SDS011;33197;52.524;13.444;2022-10-16T15:39:38;2.80;;;0.55;;
47289;SDS011;33197;52.524;13.444;2022-10-16T15:42:07;2.15;;;0.60;;
47289;SDS011;33197;52.524;13.444;2022-10-16T15:44:34;0.80;;;0.57;;
47289;SDS011;33197;52.524;13.444;2022-10-16T15:47:02;1.30;;;0.60;;
47289;SDS011;33197;52.524;13.444;2022-10-16T15:49:32;2.58;;;0.70;;
47289;SDS011;33197;52.524;13.444;2022-10-16T15:51:59;1.73;;;0.63;;
47289;SDS011;33197;52.524;13.444;2022-10-16T15:54:27;0.80;;;0.60;;
47289;SDS011;33197;52.524;13.444;2022-10-16T15:56:55;1.60;;;0.70;;
47289;SDS011;33197;52.524;13.444;2022-10-16T15:59:22;1.52;;;0.55;;
47289;SDS011;33197;52.524;13.444;2022-10-16T16:01:49;2.58;;;0.77;;
47289;SDS011;33197;52.524;13.444;2022-10-16T16:04:17;4.57;;;0.70;;
47289;SDS011;33197;52.524;13.444;2022-10-16T16:07:05;0.82;;;0.60;;
47289;SDS011;33197;52.524;13.444;2022-10-16T16:09:34;2.03;;;0.80;;
47289;SDS011;33197;52.524;13.444;2022-10-16T16:12:01;1.13;;;0.73;;
47289;SDS011;33197;52.524;13.444;2022-10-16T16:14:29;2.35;;;0.88;;
47289;SDS011;33197;52.524;13.444;2022-10-16T16:16:57;3.78;;;0.90;;
47289;SDS011;33197;52.524;13.444;2022-10-16T16:19:28;1.40;;;0.60;;
47289;SDS011;33197;52.524;13.444;2022-10-16T16:21:55;2.22;;;1.00;;
47289;SDS011;33197;52.524;13.444;2022-10-16T16:24:23;1.55;;;0.70;;
47289;SDS011;33197;52.524;13.444;2022-10-16T16:26:50;1.42;;;0.90;;
47289;SDS011;33197;52.524;13.444;2022-10-16T16:29:18;2.13;;;0.90;;
47289;SDS011;33197;52.524;13.444;2022-10-16T16:31:45;1.88;;;1.27;;
47289;SDS011;33197;52.524;13.444;2022-10-16T16:34:14;4.65;;;0.93;;
47289;SDS011;33197;52.524;13.444;2022-10-16T16:36:42;3.90;;;0.90;;
47289;SDS011;33197;52.524;13.444;2022-10-16T16:39:09;4.20;;;1.23;;
47289;SDS011;33197;52.524;13.444;2022-10-16T16:41:37;2.60;;;0.95;;
47289;SDS011;33197;52.524;13.444;2022-10-16T16:44:05;3.22;;;1.45;;
47289;SDS011;33197;52.524;13.444;2022-10-16T16:46:34;1.45;;;0.95;;
47289;SDS011;33197;52.524;13.444;2022-10-16T16:49:02;2.75;;;1.20;;
47289;SDS011;33197;52.524;13.444;2022-10-16T16:51:30;6.00;;;3.33;;
47289;SDS011;33197;52.524;13.444;2022-10-16T16:54:05;8.07;;;3.72;;
47289;SDS011;33197;52.524;13.444;2022-10-16T16:56:34;4.15;;;1.17;;
47289;SDS011;33197;52.524;13.444;2022-10-16T16:59:03;4.15;;;1.38;;
47289;SDS011;33197;52.524;13.444;2022-10-16T17:01:31;2.08;;;1.20;;
47289;SDS011;33197;52.524;13.444;2022-10-16T17:03:58;2.75;;;1.30;;
47289;SDS011;33197;52.524;13.444;2022-10-16T17:06:27;3.75;;;1.42;;
47289;SDS011;33197;52.524;13.444;2022-10-16T17:08:56;1.48;;;0.90;;
47289;SDS011;33197;52.524;13.444;2022-10-16T17:11:25;4.05;;;1.27;;
47289;SDS011;33197;52.524;13.444;2022-10-16T17:13:55;3.35;;;1.10;;
47289;SDS011;33197;52.524;13.444;2022-10-16T17:16:27;2.28;;;1.20;;
47289;SDS011;33197;52.524;13.444;2022-10-16T17:19:00;3.38;;;1.10;;